sensor_id;sensor_type;location;lat;lon;timestamp;temperature;humidity
69009;SHT31;56065;52.472;13.380;2023-02-26T00:00:44;2.16;83.44
69009;SHT31;56065;52.472;13.380;2023-02-26T00:03:10;2.16;83.01
69009;SHT31;56065;52.472;13.380;2023-02-26T00:05:35;2.07;83.07
69009;SHT31;56065;52.472;13.380;2023-02-26T00:08:01;2.05;83.35
69009;SHT31;56065;52.472;13.380;2023-02-26T00:10:30;1.96;83.23
69009;SHT31;56065;52.472;13.380;2023-02-26T00:12:55;1.87;83.51
69009;SHT31;56065;52.472;13.380;2023-02-26T00:15:21;1.92;83.77
69009;SHT31;56065;52.472;13.380;2023-02-26T00:18:07;1.89;83.28
69009;SHT31;56065;52.472;13.380;2023-02-26T00:20:35;1.85;83.29
69009;SHT31;56065;52.472;13.380;2023-02-26T00:23:01;1.86;83.82
69009;SHT31;56065;52.472;13.380;2023-02-26T00:25:26;1.89;83.41
69009;SHT31;56065;52.472;13.380;2023-02-26T00:27:52;1.95;83.40
69009;SHT31;56065;52.472;13.380;2023-02-26T00:30:17;1.89;83.44
69009;SHT31;56065;52.472;13.380;2023-02-26T00:32:43;1.93;83.68
69009;SHT31;56065;52.472;13.380;2023-02-26T00:35:13;1.98;83.51
69009;SHT31;56065;52.472;13.380;2023-02-26T00:42:48;2.16;83.23
69009;SHT31;56065;52.472;13.380;2023-02-26T00:45:14;2.19;82.98
69009;SHT31;56065;52.472;13.380;2023-02-26T00:50:36;2.13;82.67
69009;SHT31;56065;52.472;13.380;2023-02-26T00:53:21;2.23;83.03
69009;SHT31;56065;52.472;13.380;2023-02-26T00:55:48;2.26;82.53
69009;SHT31;56065;52.472;13.380;2023-02-26T00:58:14;2.26;82.68
69009;SHT31;56065;52.472;13.380;2023-02-26T01:00:39;2.24;82.81
69009;SHT31;56065;52.472;13.380;2023-02-26T01:03:05;2.32;82.65
69009;SHT31;56065;52.472;13.380;2023-02-26T01:05:30;2.33;82.77
69009;SHT31;56065;52.472;13.380;2023-02-26T01:08:17;2.33;82.34
69009;SHT31;56065;52.472;13.380;2023-02-26T01:10:44;2.38;82.11
69009;SHT31;56065;52.472;13.380;2023-02-26T01:13:09;2.36;82.25
69009;SHT31;56065;52.472;13.380;2023-02-26T01:15:36;2.41;82.57
69009;SHT31;56065;52.472;13.380;2023-02-26T01:18:12;2.47;82.42
69009;SHT31;56065;52.472;13.380;2023-02-26T01:20:45;2.44;82.07
69009;SHT31;56065;52.472;13.380;2023-02-26T01:23:15;2.53;82.18
69009;SHT31;56065;52.472;13.380;2023-02-26T01:25:49;2.56;82.32
69009;SHT31;56065;52.472;13.380;2023-02-26T01:28:15;2.65;82.01
69009;SHT31;56065;52.472;13.380;2023-02-26T01:30:41;2.67;81.55
69009;SHT31;56065;52.472;13.380;2023-02-26T01:35:53;2.64;81.70
69009;SHT31;56065;52.472;13.380;2023-02-26T01:49:23;2.73;80.90
69009;SHT31;56065;52.472;13.380;2023-02-26T01:51:51;2.73;80.86
69009;SHT31;56065;52.472;13.380;2023-02-26T01:54:20;2.75;80.66
69009;SHT31;56065;52.472;13.380;2023-02-26T01:56:49;2.83;80.72
69009;SHT31;56065;52.472;13.380;2023-02-26T01:59:17;2.83;80.89
69009;SHT31;56065;52.472;13.380;2023-02-26T02:01:48;2.81;80.53
69009;SHT31;56065;52.472;13.380;2023-02-26T02:04:14;2.77;80.49
69009;SHT31;56065;52.472;13.380;2023-02-26T02:06:41;2.78;80.50
69009;SHT31;56065;52.472;13.380;2023-02-26T02:09:07;2.81;80.47
69009;SHT31;56065;52.472;13.380;2023-02-26T02:11:33;2.87;80.55
69009;SHT31;56065;52.472;13.380;2023-02-26T02:22:39;2.92;80.25
69009;SHT31;56065;52.472;13.380;2023-02-26T02:33:57;2.91;79.94
69009;SHT31;56065;52.472;13.380;2023-02-26T02:36:47;2.98;79.82
69009;SHT31;56065;52.472;13.380;2023-02-26T02:39:19;2.92;79.68
69009;SHT31;56065;52.472;13.380;2023-02-26T02:41:57;2.96;79.58
69009;SHT31;56065;52.472;13.380;2023-02-26T02:44:26;2.99;79.70
69009;SHT31;56065;52.472;13.380;2023-02-26T02:46:54;2.99;79.43
69009;SHT31;56065;52.472;13.380;2023-02-26T02:49:26;2.95;79.42
69009;SHT31;56065;52.472;13.380;2023-02-26T02:51:57;2.96;79.63
69009;SHT31;56065;52.472;13.380;2023-02-26T02:56:55;2.99;79.08
69009;SHT31;56065;52.472;13.380;2023-02-26T02:59:31;2.96;79.12
69009;SHT31;56065;52.472;13.380;2023-02-26T03:02:22;2.91;78.90
69009;SHT31;56065;52.472;13.380;2023-02-26T03:04:46;2.81;79.55
69009;SHT31;56065;52.472;13.380;2023-02-26T03:07:13;2.88;79.86
69009;SHT31;56065;52.472;13.380;2023-02-26T03:09:38;2.88;79.06
69009;SHT31;56065;52.472;13.380;2023-02-26T03:12:04;2.84;79.05
69009;SHT31;56065;52.472;13.380;2023-02-26T03:14:29;2.78;79.44
69009;SHT31;56065;52.472;13.380;2023-02-26T03:22:54;2.67;79.28
69009;SHT31;56065;52.472;13.380;2023-02-26T03:25:33;2.65;79.56
69009;SHT31;56065;52.472;13.380;2023-02-26T03:28:06;2.70;79.58
69009;SHT31;56065;52.472;13.380;2023-02-26T03:35:54;2.67;79.29
69009;SHT31;56065;52.472;13.380;2023-02-26T03:38:27;2.65;79.40
69009;SHT31;56065;52.472;13.380;2023-02-26T03:40:59;2.62;79.48
69009;SHT31;56065;52.472;13.380;2023-02-26T03:43:38;2.65;79.68
69009;SHT31;56065;52.472;13.380;2023-02-26T03:46:07;2.64;79.67
69009;SHT31;56065;52.472;13.380;2023-02-26T03:48:34;2.68;79.74
69009;SHT31;56065;52.472;13.380;2023-02-26T03:51:04;2.68;79.71
69009;SHT31;56065;52.472;13.380;2023-02-26T03:53:35;2.74;79.83
69009;SHT31;56065;52.472;13.380;2023-02-26T03:56:12;2.81;79.92
69009;SHT31;56065;52.472;13.380;2023-02-26T03:58:39;2.85;79.59
69009;SHT31;56065;52.472;13.380;2023-02-26T04:01:10;2.85;79.35
69009;SHT31;56065;52.472;13.380;2023-02-26T04:03:44;2.85;79.11
69009;SHT31;56065;52.472;13.380;2023-02-26T04:06:12;2.89;79.27
69009;SHT31;56065;52.472;13.380;2023-02-26T04:08:38;2.78;79.10
69009;SHT31;56065;52.472;13.380;2023-02-26T04:11:11;2.71;79.54
69009;SHT31;56065;52.472;13.380;2023-02-26T04:13:38;2.73;79.54
69009;SHT31;56065;52.472;13.380;2023-02-26T04:16:04;2.68;79.51
69009;SHT31;56065;52.472;13.380;2023-02-26T04:18:30;2.81;79.39
69009;SHT31;56065;52.472;13.380;2023-02-26T04:20:55;2.75;79.29
69009;SHT31;56065;52.472;13.380;2023-02-26T04:23:21;2.77;79.37
69009;SHT31;56065;52.472;13.380;2023-02-26T04:25:46;2.84;79.20
69009;SHT31;56065;52.472;13.380;2023-02-26T04:28:12;2.84;79.10
69009;SHT31;56065;52.472;13.380;2023-02-26T04:30:37;2.83;78.94
69009;SHT31;56065;52.472;13.380;2023-02-26T04:33:02;2.81;78.96
69009;SHT31;56065;52.472;13.380;2023-02-26T04:35:28;2.77;79.12
69009;SHT31;56065;52.472;13.380;2023-02-26T04:37:53;2.75;79.60
69009;SHT31;56065;52.472;13.380;2023-02-26T04:40:18;2.80;79.50
69009;SHT31;56065;52.472;13.380;2023-02-26T04:42:44;2.80;79.12
69009;SHT31;56065;52.472;13.380;2023-02-26T04:45:09;2.81;78.91
69009;SHT31;56065;52.472;13.380;2023-02-26T04:47:35;2.77;78.94
69009;SHT31;56065;52.472;13.380;2023-02-26T04:50:00;2.78;79.24
69009;SHT31;56065;52.472;13.380;2023-02-26T04:52:26;2.81;79.18
69009;SHT31;56065;52.472;13.380;2023-02-26T04:54:51;2.84;78.84
69009;SHT31;56065;52.472;13.380;2023-02-26T04:57:17;2.87;78.70
69009;SHT31;56065;52.472;13.380;2023-02-26T04:59:42;2.92;78.98
69009;SHT31;56065;52.472;13.380;2023-02-26T05:02:07;2.94;78.41
69009;SHT31;56065;52.472;13.380;2023-02-26T05:04:33;2.94;77.92
69009;SHT31;56065;52.472;13.380;2023-02-26T05:06:58;2.87;77.95
69009;SHT31;56065;52.472;13.380;2023-02-26T05:09:23;2.87;77.90
69009;SHT31;56065;52.472;13.380;2023-02-26T05:11:49;2.80;78.17
69009;SHT31;56065;52.472;13.380;2023-02-26T05:14:15;2.78;78.37
69009;SHT31;56065;52.472;13.380;2023-02-26T05:16:40;2.78;78.41
69009;SHT31;56065;52.472;13.380;2023-02-26T05:19:06;2.80;78.19
69009;SHT31;56065;52.472;13.380;2023-02-26T05:21:31;2.74;78.28
69009;SHT31;56065;52.472;13.380;2023-02-26T05:23:57;2.80;78.13
69009;SHT31;56065;52.472;13.380;2023-02-26T05:26:22;2.80;77.92
69009;SHT31;56065;52.472;13.380;2023-02-26T05:28:48;2.81;77.98
69009;SHT31;56065;52.472;13.380;2023-02-26T05:31:13;2.75;77.56
69009;SHT31;56065;52.472;13.380;2023-02-26T05:33:39;2.80;77.54
69009;SHT31;56065;52.472;13.380;2023-02-26T05:36:04;2.84;77.85
69009;SHT31;56065;52.472;13.380;2023-02-26T05:38:31;2.84;77.39
69009;SHT31;56065;52.472;13.380;2023-02-26T05:40:57;2.80;77.27
69009;SHT31;56065;52.472;13.380;2023-02-26T05:43:23;2.71;77.95
69009;SHT31;56065;52.472;13.380;2023-02-26T05:45:49;2.74;77.46
69009;SHT31;56065;52.472;13.380;2023-02-26T05:48:15;2.81;77.52
69009;SHT31;56065;52.472;13.380;2023-02-26T05:50:40;2.80;77.54
69009;SHT31;56065;52.472;13.380;2023-02-26T05:53:05;2.75;77.43
69009;SHT31;56065;52.472;13.380;2023-02-26T05:55:31;2.83;77.52
69009;SHT31;56065;52.472;13.380;2023-02-26T05:57:56;2.87;77.21
69009;SHT31;56065;52.472;13.380;2023-02-26T06:00:22;2.85;76.88
69009;SHT31;56065;52.472;13.380;2023-02-26T06:02:47;2.84;76.51
69009;SHT31;56065;52.472;13.380;2023-02-26T06:05:13;2.77;77.25
69009;SHT31;56065;52.472;13.380;2023-02-26T06:07:38;2.77;77.18
69009;SHT31;56065;52.472;13.380;2023-02-26T06:10:04;2.85;77.00
69009;SHT31;56065;52.472;13.380;2023-02-26T06:12:30;2.84;76.92
69009;SHT31;56065;52.472;13.380;2023-02-26T06:14:55;2.89;77.12
69009;SHT31;56065;52.472;13.380;2023-02-26T06:17:20;2.83;76.82
69009;SHT31;56065;52.472;13.380;2023-02-26T06:19:46;2.94;76.30
69009;SHT31;56065;52.472;13.380;2023-02-26T06:22:11;2.94;76.24
69009;SHT31;56065;52.472;13.380;2023-02-26T06:24:36;2.92;76.14
69009;SHT31;56065;52.472;13.380;2023-02-26T06:27:02;3.02;76.79
69009;SHT31;56065;52.472;13.380;2023-02-26T06:29:27;3.11;76.19
69009;SHT31;56065;52.472;13.380;2023-02-26T06:31:53;3.11;75.86
69009;SHT31;56065;52.472;13.380;2023-02-26T06:34:18;3.02;75.87
69009;SHT31;56065;52.472;13.380;2023-02-26T06:36:44;3.11;76.25
69009;SHT31;56065;52.472;13.380;2023-02-26T06:39:09;3.23;75.56
69009;SHT31;56065;52.472;13.380;2023-02-26T06:41:36;3.29;75.43
69009;SHT31;56065;52.472;13.380;2023-02-26T06:44:02;3.33;75.43
69009;SHT31;56065;52.472;13.380;2023-02-26T06:46:27;3.29;75.32
69009;SHT31;56065;52.472;13.380;2023-02-26T06:48:52;3.39;75.23
69009;SHT31;56065;52.472;13.380;2023-02-26T06:51:18;3.52;74.73
69009;SHT31;56065;52.472;13.380;2023-02-26T06:53:43;3.57;74.09
69009;SHT31;56065;52.472;13.380;2023-02-26T06:56:08;3.98;74.12
69009;SHT31;56065;52.472;13.380;2023-02-26T06:58:34;4.66;72.33
69009;SHT31;56065;52.472;13.380;2023-02-26T07:01:02;4.94;70.75
69009;SHT31;56065;52.472;13.380;2023-02-26T07:03:27;5.14;70.87
69009;SHT31;56065;52.472;13.380;2023-02-26T07:05:53;5.42;70.80
69009;SHT31;56065;52.472;13.380;2023-02-26T07:08:18;5.68;69.39
69009;SHT31;56065;52.472;13.380;2023-02-26T07:10:43;5.59;68.75
69009;SHT31;56065;52.472;13.380;2023-02-26T07:13:11;5.88;69.20
69009;SHT31;56065;52.472;13.380;2023-02-26T07:15:37;6.03;68.61
69009;SHT31;56065;52.472;13.380;2023-02-26T07:18:02;6.10;68.54
69009;SHT31;56065;52.472;13.380;2023-02-26T07:20:28;5.95;68.19
69009;SHT31;56065;52.472;13.380;2023-02-26T07:22:56;5.72;67.97
69009;SHT31;56065;52.472;13.380;2023-02-26T07:25:22;5.42;68.39
69009;SHT31;56065;52.472;13.380;2023-02-26T07:27:48;5.45;69.00
69009;SHT31;56065;52.472;13.380;2023-02-26T07:30:14;5.24;69.13
69009;SHT31;56065;52.472;13.380;2023-02-26T07:32:39;5.27;69.32
69009;SHT31;56065;52.472;13.380;2023-02-26T07:35:05;5.44;69.08
69009;SHT31;56065;52.472;13.380;2023-02-26T07:37:30;5.68;69.01
69009;SHT31;56065;52.472;13.380;2023-02-26T07:39:56;5.86;68.52
69009;SHT31;56065;52.472;13.380;2023-02-26T07:42:21;5.98;68.34
69009;SHT31;56065;52.472;13.380;2023-02-26T07:44:46;6.41;67.13
69009;SHT31;56065;52.472;13.380;2023-02-26T07:47:12;7.16;66.48
69009;SHT31;56065;52.472;13.380;2023-02-26T07:49:38;8.69;64.72
69009;SHT31;56065;52.472;13.380;2023-02-26T07:52:04;9.92;60.90
69009;SHT31;56065;52.472;13.380;2023-02-26T07:54:32;9.63;58.15
69009;SHT31;56065;52.472;13.380;2023-02-26T07:56:58;9.59;59.06
69009;SHT31;56065;52.472;13.380;2023-02-26T07:59:23;9.27;58.64
69009;SHT31;56065;52.472;13.380;2023-02-26T08:01:48;9.13;59.37
69009;SHT31;56065;52.472;13.380;2023-02-26T08:04:14;9.13;58.85
69009;SHT31;56065;52.472;13.380;2023-02-26T08:06:39;9.79;60.50
69009;SHT31;56065;52.472;13.380;2023-02-26T08:09:05;10.57;57.13
69009;SHT31;56065;52.472;13.380;2023-02-26T08:11:30;10.78;57.74
69009;SHT31;56065;52.472;13.380;2023-02-26T08:13:58;11.09;56.17
69009;SHT31;56065;52.472;13.380;2023-02-26T08:16:23;11.62;55.47
69009;SHT31;56065;52.472;13.380;2023-02-26T08:18:49;11.95;55.00
69009;SHT31;56065;52.472;13.380;2023-02-26T08:21:14;12.62;51.41
69009;SHT31;56065;52.472;13.380;2023-02-26T08:23:40;13.83;49.67
69009;SHT31;56065;52.472;13.380;2023-02-26T08:26:07;15.47;48.44
69009;SHT31;56065;52.472;13.380;2023-02-26T08:28:33;16.51;46.06
69009;SHT31;56065;52.472;13.380;2023-02-26T08:30:59;17.30;44.35
69009;SHT31;56065;52.472;13.380;2023-02-26T08:33:24;18.19;43.04
69009;SHT31;56065;52.472;13.380;2023-02-26T08:35:50;18.57;40.99
69009;SHT31;56065;52.472;13.380;2023-02-26T08:38:16;19.29;40.57
69009;SHT31;56065;52.472;13.380;2023-02-26T08:40:42;20.01;38.71
69009;SHT31;56065;52.472;13.380;2023-02-26T08:43:07;20.52;40.28
69009;SHT31;56065;52.472;13.380;2023-02-26T08:45:33;21.33;39.02
69009;SHT31;56065;52.472;13.380;2023-02-26T08:47:59;21.74;38.47
69009;SHT31;56065;52.472;13.380;2023-02-26T08:50:25;21.70;37.81
69009;SHT31;56065;52.472;13.380;2023-02-26T08:52:50;22.00;38.18
69009;SHT31;56065;52.472;13.380;2023-02-26T08:55:16;22.01;37.30
69009;SHT31;56065;52.472;13.380;2023-02-26T08:57:41;21.66;36.48
69009;SHT31;56065;52.472;13.380;2023-02-26T09:00:07;21.53;36.37
69009;SHT31;56065;52.472;13.380;2023-02-26T09:02:35;21.74;36.21
69009;SHT31;56065;52.472;13.380;2023-02-26T09:05:01;22.02;35.00
69009;SHT31;56065;52.472;13.380;2023-02-26T09:07:26;22.92;35.69
69009;SHT31;56065;52.472;13.380;2023-02-26T09:09:52;22.96;35.86
69009;SHT31;56065;52.472;13.380;2023-02-26T09:12:17;22.69;35.44
69009;SHT31;56065;52.472;13.380;2023-02-26T09:14:42;22.82;35.87
69009;SHT31;56065;52.472;13.380;2023-02-26T09:17:08;22.87;34.10
69009;SHT31;56065;52.472;13.380;2023-02-26T09:19:33;23.21;33.94
69009;SHT31;56065;52.472;13.380;2023-02-26T09:21:58;22.44;34.48
69009;SHT31;56065;52.472;13.380;2023-02-26T09:24:24;22.77;34.31
69009;SHT31;56065;52.472;13.380;2023-02-26T09:26:49;23.00;34.10
69009;SHT31;56065;52.472;13.380;2023-02-26T09:29:14;23.59;34.27
69009;SHT31;56065;52.472;13.380;2023-02-26T09:31:40;24.02;33.44
69009;SHT31;56065;52.472;13.380;2023-02-26T09:34:05;22.86;33.56
69009;SHT31;56065;52.472;13.380;2023-02-26T09:36:30;22.26;34.08
69009;SHT31;56065;52.472;13.380;2023-02-26T09:38:56;22.07;33.73
69009;SHT31;56065;52.472;13.380;2023-02-26T09:41:30;22.44;33.29
69009;SHT31;56065;52.472;13.380;2023-02-26T09:50:00;23.30;33.10
69009;SHT31;56065;52.472;13.380;2023-02-26T09:52:40;23.45;33.54
69009;SHT31;56065;52.472;13.380;2023-02-26T09:55:18;23.21;31.93
69009;SHT31;56065;52.472;13.380;2023-02-26T09:57:50;21.84;33.23
69009;SHT31;56065;52.472;13.380;2023-02-26T10:02:54;18.24;37.23
69009;SHT31;56065;52.472;13.380;2023-02-26T10:05:39;18.63;38.23
69009;SHT31;56065;52.472;13.380;2023-02-26T10:08:13;18.97;36.89
69009;SHT31;56065;52.472;13.380;2023-02-26T10:11:00;18.71;37.67
69009;SHT31;56065;52.472;13.380;2023-02-26T10:13:43;16.95;37.73
69009;SHT31;56065;52.472;13.380;2023-02-26T10:16:20;16.75;38.72
69009;SHT31;56065;52.472;13.380;2023-02-26T10:19:15;16.34;39.89
69009;SHT31;56065;52.472;13.380;2023-02-26T10:24:40;19.86;36.32
69009;SHT31;56065;52.472;13.380;2023-02-26T10:27:11;20.55;34.73
69009;SHT31;56065;52.472;13.380;2023-02-26T10:29:59;22.07;34.66
69009;SHT31;56065;52.472;13.380;2023-02-26T10:32:39;22.89;34.30
69009;SHT31;56065;52.472;13.380;2023-02-26T10:35:26;23.50;33.07
69009;SHT31;56065;52.472;13.380;2023-02-26T10:37:57;23.75;34.32
69009;SHT31;56065;52.472;13.380;2023-02-26T10:45:44;20.01;34.02
69009;SHT31;56065;52.472;13.380;2023-02-26T10:48:35;18.71;36.24
69009;SHT31;56065;52.472;13.380;2023-02-26T10:53:37;18.32;38.15
69009;SHT31;56065;52.472;13.380;2023-02-26T10:56:07;19.04;36.30
69009;SHT31;56065;52.472;13.380;2023-02-26T10:58:34;20.33;35.81
69009;SHT31;56065;52.472;13.380;2023-02-26T11:00:59;20.67;34.63
69009;SHT31;56065;52.472;13.380;2023-02-26T11:03:33;19.18;34.57
69009;SHT31;56065;52.472;13.380;2023-02-26T11:06:01;17.92;35.62
69009;SHT31;56065;52.472;13.380;2023-02-26T11:08:34;17.71;36.86
69009;SHT31;56065;52.472;13.380;2023-02-26T11:11:01;16.71;37.21
69009;SHT31;56065;52.472;13.380;2023-02-26T11:13:30;16.73;37.90
69009;SHT31;56065;52.472;13.380;2023-02-26T11:15:58;17.67;38.34
69009;SHT31;56065;52.472;13.380;2023-02-26T11:18:28;17.51;37.43
69009;SHT31;56065;52.472;13.380;2023-02-26T11:20:57;17.03;37.40
69009;SHT31;56065;52.472;13.380;2023-02-26T11:23:26;16.13;38.00
69009;SHT31;56065;52.472;13.380;2023-02-26T11:25:59;15.01;38.60
69009;SHT31;56065;52.472;13.380;2023-02-26T11:28:47;14.06;40.24
69009;SHT31;56065;52.472;13.380;2023-02-26T11:31:17;13.04;40.45
69009;SHT31;56065;52.472;13.380;2023-02-26T11:33:58;12.21;41.06
69009;SHT31;56065;52.472;13.380;2023-02-26T11:36:27;11.75;42.10
69009;SHT31;56065;52.472;13.380;2023-02-26T11:39:00;12.32;44.00
69009;SHT31;56065;52.472;13.380;2023-02-26T11:41:27;13.98;43.23
69009;SHT31;56065;52.472;13.380;2023-02-26T11:44:13;15.91;40.29
69009;SHT31;56065;52.472;13.380;2023-02-26T11:46:51;16.22;38.50
69009;SHT31;56065;52.472;13.380;2023-02-26T11:49:19;15.16;39.64
69009;SHT31;56065;52.472;13.380;2023-02-26T11:51:47;14.12;41.22
69009;SHT31;56065;52.472;13.380;2023-02-26T11:54:22;13.11;42.52
69009;SHT31;56065;52.472;13.380;2023-02-26T11:56:47;12.20;43.33
69009;SHT31;56065;52.472;13.380;2023-02-26T11:59:22;11.56;43.85
69009;SHT31;56065;52.472;13.380;2023-02-26T12:01:50;11.01;44.05
69009;SHT31;56065;52.472;13.380;2023-02-26T12:04:21;10.36;45.13
69009;SHT31;56065;52.472;13.380;2023-02-26T12:06:49;10.24;46.18
69009;SHT31;56065;52.472;13.380;2023-02-26T12:09:16;10.41;46.82
69009;SHT31;56065;52.472;13.380;2023-02-26T12:31:36;12.04;45.09
69009;SHT31;56065;52.472;13.380;2023-02-26T12:36:45;13.48;41.95
69009;SHT31;56065;52.472;13.380;2023-02-26T12:48:01;16.44;37.32
69009;SHT31;56065;52.472;13.380;2023-02-26T12:50:52;14.51;38.99
69009;SHT31;56065;52.472;13.380;2023-02-26T12:59:04;12.12;43.13
69009;SHT31;56065;52.472;13.380;2023-02-26T13:09:29;13.61;41.16
69009;SHT31;56065;52.472;13.380;2023-02-26T13:12:17;13.45;39.98
69009;SHT31;56065;52.472;13.380;2023-02-26T13:18:19;12.57;42.07
69009;SHT31;56065;52.472;13.380;2023-02-26T13:21:12;12.29;42.14
69009;SHT31;56065;52.472;13.380;2023-02-26T13:23:54;11.90;42.52
69009;SHT31;56065;52.472;13.380;2023-02-26T13:26:22;11.36;43.31
69009;SHT31;56065;52.472;13.380;2023-02-26T13:28:59;11.25;43.68
69009;SHT31;56065;52.472;13.380;2023-02-26T13:34:12;10.40;46.01
69009;SHT31;56065;52.472;13.380;2023-02-26T13:36:40;10.09;46.09
69009;SHT31;56065;52.472;13.380;2023-02-26T13:39:22;9.42;46.31
69009;SHT31;56065;52.472;13.380;2023-02-26T13:42:26;9.38;47.34
69009;SHT31;56065;52.472;13.380;2023-02-26T13:53:04;9.85;48.06
69009;SHT31;56065;52.472;13.380;2023-02-26T14:00:57;10.12;45.43
69009;SHT31;56065;52.472;13.380;2023-02-26T14:05:54;9.68;46.16
69009;SHT31;56065;52.472;13.380;2023-02-26T14:11:12;9.49;45.63
69009;SHT31;56065;52.472;13.380;2023-02-26T14:14:10;9.08;45.28
69009;SHT31;56065;52.472;13.380;2023-02-26T14:16:39;9.44;45.95
69009;SHT31;56065;52.472;13.380;2023-02-26T14:21:55;9.83;45.47
69009;SHT31;56065;52.472;13.380;2023-02-26T14:24:36;10.36;44.81
69009;SHT31;56065;52.472;13.380;2023-02-26T14:27:32;10.75;44.23
69009;SHT31;56065;52.472;13.380;2023-02-26T14:33:06;10.34;43.76
69009;SHT31;56065;52.472;13.380;2023-02-26T14:35:44;10.16;43.76
69009;SHT31;56065;52.472;13.380;2023-02-26T14:38:33;10.12;44.61
69009;SHT31;56065;52.472;13.380;2023-02-26T14:43:57;10.74;45.33
69009;SHT31;56065;52.472;13.380;2023-02-26T14:46:24;11.02;44.22
69009;SHT31;56065;52.472;13.380;2023-02-26T14:48:49;10.92;43.63
69009;SHT31;56065;52.472;13.380;2023-02-26T15:07:19;8.32;46.02
69009;SHT31;56065;52.472;13.380;2023-02-26T15:12:48;8.13;46.90
69009;SHT31;56065;52.472;13.380;2023-02-26T15:21:10;7.34;48.72
69009;SHT31;56065;52.472;13.380;2023-02-26T15:23:44;7.15;48.58
69009;SHT31;56065;52.472;13.380;2023-02-26T15:26:22;7.08;49.03
69009;SHT31;56065;52.472;13.380;2023-02-26T15:28:49;7.15;48.70
69009;SHT31;56065;52.472;13.380;2023-02-26T15:31:18;7.40;49.12
69009;SHT31;56065;52.472;13.380;2023-02-26T15:33:47;7.61;48.75
69009;SHT31;56065;52.472;13.380;2023-02-26T15:36:15;7.87;48.55
69009;SHT31;56065;52.472;13.380;2023-02-26T15:38:47;8.06;48.48
69009;SHT31;56065;52.472;13.380;2023-02-26T15:41:13;8.20;49.24
69009;SHT31;56065;52.472;13.380;2023-02-26T15:43:45;8.35;48.63
69009;SHT31;56065;52.472;13.380;2023-02-26T15:46:12;8.49;47.93
69009;SHT31;56065;52.472;13.380;2023-02-26T15:48:39;8.48;48.74
69009;SHT31;56065;52.472;13.380;2023-02-26T15:51:08;8.49;48.13
69009;SHT31;56065;52.472;13.380;2023-02-26T15:53:43;8.35;47.05
69009;SHT31;56065;52.472;13.380;2023-02-26T15:56:14;8.20;46.12
69009;SHT31;56065;52.472;13.380;2023-02-26T15:59:08;7.94;46.88
69009;SHT31;56065;52.472;13.380;2023-02-26T16:01:34;7.73;47.72
69009;SHT31;56065;52.472;13.380;2023-02-26T16:04:04;7.51;47.87
69009;SHT31;56065;52.472;13.380;2023-02-26T16:06:37;7.36;48.33
69009;SHT31;56065;52.472;13.380;2023-02-26T16:09:05;7.06;48.58
69009;SHT31;56065;52.472;13.380;2023-02-26T16:11:34;6.85;48.59
69009;SHT31;56065;52.472;13.380;2023-02-26T16:14:01;6.60;49.53
69009;SHT31;56065;52.472;13.380;2023-02-26T16:16:40;6.47;50.80
69009;SHT31;56065;52.472;13.380;2023-02-26T16:19:10;6.13;50.51
69009;SHT31;56065;52.472;13.380;2023-02-26T16:21:37;6.00;51.09
69009;SHT31;56065;52.472;13.380;2023-02-26T16:24:07;5.80;52.14
69009;SHT31;56065;52.472;13.380;2023-02-26T16:26:38;5.68;52.07
69009;SHT31;56065;52.472;13.380;2023-02-26T16:29:23;5.41;52.79
69009;SHT31;56065;52.472;13.380;2023-02-26T16:32:01;5.39;52.50
69009;SHT31;56065;52.472;13.380;2023-02-26T16:37:17;5.20;53.39
69009;SHT31;56065;52.472;13.380;2023-02-26T16:39:44;5.14;52.92
69009;SHT31;56065;52.472;13.380;2023-02-26T16:42:21;4.81;54.45
69009;SHT31;56065;52.472;13.380;2023-02-26T16:44:50;4.77;54.15
69009;SHT31;56065;52.472;13.380;2023-02-26T16:47:17;4.70;55.03
69009;SHT31;56065;52.472;13.380;2023-02-26T16:49:44;4.59;54.91
69009;SHT31;56065;52.472;13.380;2023-02-26T16:52:16;4.35;55.98
69009;SHT31;56065;52.472;13.380;2023-02-26T16:54:48;4.34;55.99
69009;SHT31;56065;52.472;13.380;2023-02-26T16:57:17;4.29;55.75
69009;SHT31;56065;52.472;13.380;2023-02-26T16:59:52;4.24;55.91
69009;SHT31;56065;52.472;13.380;2023-02-26T17:02:21;4.15;56.75
69009;SHT31;56065;52.472;13.380;2023-02-26T17:04:52;4.15;56.03
69009;SHT31;56065;52.472;13.380;2023-02-26T17:07:35;4.04;57.14
69009;SHT31;56065;52.472;13.380;2023-02-26T17:10:22;4.05;57.18
69009;SHT31;56065;52.472;13.380;2023-02-26T17:12:51;4.09;57.79
69009;SHT31;56065;52.472;13.380;2023-02-26T17:15:29;4.11;58.02
69009;SHT31;56065;52.472;13.380;2023-02-26T17:17:54;4.11;58.30
69009;SHT31;56065;52.472;13.380;2023-02-26T17:20:23;4.05;58.09
69009;SHT31;56065;52.472;13.380;2023-02-26T17:22:49;3.97;58.30
69009;SHT31;56065;52.472;13.380;2023-02-26T17:25:19;3.91;58.63
69009;SHT31;56065;52.472;13.380;2023-02-26T17:27:45;3.97;58.29
69009;SHT31;56065;52.472;13.380;2023-02-26T17:30:14;3.87;58.78
69009;SHT31;56065;52.472;13.380;2023-02-26T17:32:41;3.77;59.22
69009;SHT31;56065;52.472;13.380;2023-02-26T17:35:10;3.80;59.59
69009;SHT31;56065;52.472;13.380;2023-02-26T17:37:35;3.84;59.17
69009;SHT31;56065;52.472;13.380;2023-02-26T17:40:03;3.98;59.31
69009;SHT31;56065;52.472;13.380;2023-02-26T17:42:29;4.08;59.45
69009;SHT31;56065;52.472;13.380;2023-02-26T17:44:54;4.15;59.34
69009;SHT31;56065;52.472;13.380;2023-02-26T17:47:25;4.34;58.60
69009;SHT31;56065;52.472;13.380;2023-02-26T17:49:52;4.29;59.13
69009;SHT31;56065;52.472;13.380;2023-02-26T17:52:18;4.35;59.25
69009;SHT31;56065;52.472;13.380;2023-02-26T17:54:44;4.39;59.70
69009;SHT31;56065;52.472;13.380;2023-02-26T17:57:20;4.46;60.62
69009;SHT31;56065;52.472;13.380;2023-02-26T17:59:46;4.48;60.53
69009;SHT31;56065;52.472;13.380;2023-02-26T18:02:22;4.50;63.91
69009;SHT31;56065;52.472;13.380;2023-02-26T18:04:51;4.41;62.15
69009;SHT31;56065;52.472;13.380;2023-02-26T18:07:18;4.36;60.66
69009;SHT31;56065;52.472;13.380;2023-02-26T18:09:44;4.14;62.04
69009;SHT31;56065;52.472;13.380;2023-02-26T18:12:20;3.97;62.45
69009;SHT31;56065;52.472;13.380;2023-02-26T18:14:46;3.94;61.20
69009;SHT31;56065;52.472;13.380;2023-02-26T18:17:21;3.76;62.10
69009;SHT31;56065;52.472;13.380;2023-02-26T18:19:47;3.66;61.59
69009;SHT31;56065;52.472;13.380;2023-02-26T18:22:14;3.60;61.38
69009;SHT31;56065;52.472;13.380;2023-02-26T18:24:41;3.53;61.18
69009;SHT31;56065;52.472;13.380;2023-02-26T18:27:13;3.42;61.77
69009;SHT31;56065;52.472;13.380;2023-02-26T18:29:38;3.36;61.44
69009;SHT31;56065;52.472;13.380;2023-02-26T18:32:04;3.29;61.63
69009;SHT31;56065;52.472;13.380;2023-02-26T18:34:29;3.25;63.27
69009;SHT31;56065;52.472;13.380;2023-02-26T18:36:55;3.23;63.14
69009;SHT31;56065;52.472;13.380;2023-02-26T18:39:20;3.22;63.10